Strona główna
METAR-TAF:

METAR-TAF

Lotnisko :

South Jersey Regional Airport

Mount Holly, New Jersey, Stany Zjednoczone

Szerokość geograficzna: 39-56-26N, Długość geograficzna: 074-50-28W, wysokość: 16 m

Aktualna obserwacja pogody

Raport powstał 23 minut temu, godzina 08:54 UTC
Cisza
Temperatura -7°C
Wilgotność 86%
Ciśnienie 1034 hPa
Widzialność: 16.1 km
bezchmurnie

METAR: KVAY 080854Z AUTO 00000KT 10SM CLR M07/M09 A3053 RMK AO2 SLP340 I1000 I3000 T10671089 50006

czas: 04:17 (09:17 UTC)


TAF: brakujący

Obserwacja i prognoza pogody dla ponad 4000 lotnisk (raport METAR i TAF).

Dostępne stacje oznaczono żółtymi i czerwonymi punktami na mapie.

Najedź kursorem aby zobaczyć nazwę stacji.

Kliknij aby zobaczyć obserwacje i prognozy pogody.

Aby zmienić mapę: kliknij na zielony przycisk z czarnym krzyżykiem, aby powiększyć; na zielony przycisk z myślnikiem, aby pomniejszyć; na zielone strzałki, aby przejść do map sąsiednich.


METAR-TAF: